createdAt,value
2018-09-24T07:58:02.650Z,2148.75
2018-09-24T07:59:02.335Z,2385.00
2018-09-24T08:06:56.405Z,2008.12
2018-09-24T08:07:55.624Z,2137.50
2018-09-24T08:13:34.771Z,1794.38
2018-09-24T08:14:34.173Z,1839.38
2018-09-24T08:15:34.153Z,2520.00
2018-09-24T08:16:33.903Z,3470.62
2018-09-24T08:17:33.821Z,3588.75
2018-09-24T08:21:22.338Z,2745.00
2018-09-24T08:22:21.910Z,3324.38
2018-09-24T08:23:22.343Z,3588.75
2018-09-24T08:24:21.658Z,3515.62
2018-09-24T08:25:21.501Z,3256.88
2018-09-24T08:26:21.591Z,2576.25
2018-09-24T08:27:21.457Z,1923.75
2018-09-24T08:28:21.844Z,1873.12
2018-09-24T08:29:21.493Z,2075.62
2018-09-24T08:30:22.385Z,3633.75
2018-09-24T08:31:21.639Z,3555.00
2018-09-24T08:32:21.383Z,3442.50
2018-09-24T08:33:21.489Z,3498.75
2018-09-24T08:34:21.352Z,3611.25
2018-09-24T08:35:21.367Z,3611.25
2018-09-24T08:36:21.431Z,3678.75
2018-09-24T08:37:21.530Z,3718.12
2018-09-24T08:38:21.386Z,3611.25
2018-09-24T08:39:21.368Z,3600.00
2018-09-24T08:40:21.289Z,3588.75
2018-09-24T08:41:21.299Z,3701.25
2018-09-24T08:42:21.332Z,3796.88
2018-09-24T08:43:21.895Z,3740.62
2018-09-24T08:44:21.423Z,3768.75
2018-09-24T08:45:21.237Z,3825.00
2018-09-24T08:49:41.141Z,3813.75
2018-09-24T08:50:41.995Z,3847.50
2018-09-24T08:51:40.957Z,3943.12
2018-09-24T08:52:40.955Z,3960.00
2018-09-24T08:53:43.490Z,3892.50
2018-09-24T08:54:40.952Z,3864.38
2018-09-24T08:57:29.077Z,3785.62
2018-09-24T09:02:22.818Z,3898.12
2018-09-24T09:04:59.443Z,4089.38
2018-09-24T09:11:45.423Z,4230.00
2018-09-24T09:12:44.745Z,4331.25
2018-09-24T09:13:46.377Z,4421.25
2018-09-24T09:14:45.299Z,4168.12
2018-09-24T09:15:44.160Z,4038.75
2018-09-24T09:19:35.386Z,4128.75
2018-09-24T09:23:40.412Z,4145.62
2018-09-24T09:33:58.306Z,556.88
2018-09-24T09:34:55.189Z,540.00
2018-09-24T09:35:55.274Z,590.62
2018-09-24T09:36:54.936Z,804.38
2018-09-24T09:37:54.986Z,759.38
2018-09-24T09:38:55.187Z,596.25
2018-09-24T09:39:54.934Z,613.12
2018-09-24T09:40:55.675Z,500.62
2018-09-24T09:41:54.931Z,540.00
2018-09-24T09:42:54.855Z,545.62
2018-09-24T09:43:54.841Z,691.88
2018-09-24T09:44:55.843Z,804.38
2018-09-24T09:47:29.289Z,697.50
2018-09-24T09:56:00.277Z,1164.38
2018-09-24T09:56:59.675Z,1406.25
2018-09-24T09:57:59.484Z,1102.50
2018-09-24T09:58:59.632Z,871.88
2018-09-24T09:59:59.605Z,725.62
2018-09-24T10:03:10.092Z,686.25
2018-09-24T10:04:10.643Z,888.75
2018-09-24T10:05:12.589Z,1074.38
2018-09-24T10:06:09.922Z,1141.88
2018-09-24T10:07:09.847Z,1299.38
2018-09-24T10:08:10.026Z,1237.50
2018-09-24T10:09:09.904Z,1260.00
2018-09-24T10:10:14.722Z,1136.25
2018-09-24T10:11:09.883Z,1198.12
2018-09-24T10:14:49.841Z,1265.62
2018-09-24T10:20:12.942Z,511.88
2018-09-24T10:24:26.032Z,883.12
2018-09-24T10:25:25.649Z,748.12
2018-09-24T10:26:25.592Z,703.12
2018-09-24T10:27:25.594Z,810.00
2018-09-24T10:41:36.679Z,1687.50
2018-09-24T10:44:19.040Z,4865.62
2018-09-24T10:50:43.237Z,1732.50
2018-09-24T10:51:42.599Z,1591.88
2018-09-24T11:00:56.720Z,961.88
2018-09-24T11:01:53.976Z,1141.88
2018-09-24T11:05:47.390Z,1445.62
2018-09-24T11:06:47.290Z,1546.88
2018-09-24T11:10:35.141Z,4719.38
2018-09-24T11:11:34.957Z,1951.88
2018-09-24T11:12:55.074Z,4663.12
2018-09-24T11:14:01.703Z,5056.88
2018-09-24T11:14:35.343Z,5152.50
2018-09-24T11:15:45.854Z,2401.88
2018-09-24T11:19:09.541Z,950.62
2018-09-24T11:24:10.963Z,4933.12
2018-09-24T11:25:10.537Z,2250.00
2018-09-24T11:33:58.008Z,4505.62
2018-09-24T11:41:01.435Z,4545.00
2018-09-24T11:46:25.332Z,4770.00
2018-09-24T11:47:25.238Z,4736.25
2018-09-24T11:48:24.846Z,4764.38
2018-09-24T11:50:20.038Z,4848.75
2018-09-24T11:52:31.946Z,4516.88
2018-09-24T11:53:31.530Z,4438.12
2018-09-24T11:54:31.387Z,4438.12
2018-09-24T11:55:31.516Z,4286.25
2018-09-24T11:56:31.483Z,4353.75
2018-09-24T11:57:31.491Z,4758.75
2018-09-24T11:59:48.643Z,4815.00
2018-09-24T12:00:48.286Z,4747.50
2018-09-24T12:01:48.247Z,4426.88
2018-09-24T12:02:48.221Z,1901.25
2018-09-24T12:03:48.215Z,961.88
2018-09-24T12:04:48.148Z,933.75
2018-09-24T12:05:48.261Z,849.38
2018-09-24T12:06:48.101Z,871.88
2018-09-24T12:07:48.135Z,1209.38
2018-09-24T12:08:48.082Z,2621.25
2018-09-24T12:09:48.157Z,3358.12
2018-09-24T12:10:48.071Z,4252.50
2018-09-24T12:11:48.086Z,1080.00
2018-09-24T12:12:48.038Z,2953.12
2018-09-24T12:13:48.085Z,2334.38
2018-09-24T12:14:48.024Z,1912.50
2018-09-24T12:15:48.011Z,1462.50
2018-09-24T12:16:48.000Z,2323.12
2018-09-24T12:17:48.119Z,2053.12
2018-09-24T12:18:47.974Z,3116.25
2018-09-24T12:19:47.981Z,1203.75
2018-09-24T12:20:47.953Z,2745.00
2018-09-24T12:21:48.849Z,4348.12
2018-09-24T12:22:48.246Z,4196.25
2018-09-24T12:23:47.920Z,3538.12
2018-09-24T12:24:47.917Z,4185.00
2018-09-24T12:25:47.973Z,4286.25
2018-09-24T12:26:47.898Z,4179.38
2018-09-24T12:27:48.049Z,4078.12
2018-09-24T12:28:48.038Z,4140.00
2018-09-24T12:29:47.929Z,4061.25
2018-09-24T12:30:48.284Z,3965.62
2018-09-24T12:31:48.906Z,4066.88
2018-09-24T12:32:47.882Z,4145.62
2018-09-24T12:33:47.855Z,4078.12
2018-09-24T12:34:48.162Z,3948.75
2018-09-24T12:35:47.872Z,3881.25
2018-09-24T12:36:47.785Z,3988.12
2018-09-24T12:37:49.880Z,3931.88
2018-09-24T12:38:47.773Z,3870.00
2018-09-24T12:39:47.768Z,3853.12
2018-09-24T12:40:47.770Z,3999.38
2018-09-24T12:41:47.911Z,3903.75
2018-09-24T12:42:47.757Z,3813.75
2018-09-24T12:43:47.727Z,3999.38
2018-09-24T12:44:47.699Z,3870.00
2018-09-24T12:45:47.746Z,3875.62
2018-09-24T12:46:47.687Z,3931.88
2018-09-24T12:47:47.693Z,3943.12
2018-09-24T12:48:48.254Z,3993.75
2018-09-24T12:49:47.642Z,3920.62
2018-09-24T12:50:47.697Z,3943.12
2018-09-24T12:51:47.625Z,3909.38
2018-09-24T12:52:47.607Z,4117.50
2018-09-24T12:53:47.648Z,4140.00
2018-09-24T12:54:47.583Z,4021.88
2018-09-24T12:55:47.575Z,3931.88
2018-09-24T12:56:47.688Z,3965.62
2018-09-24T12:57:47.553Z,3943.12
2018-09-24T12:58:47.559Z,4021.88
2018-09-24T12:59:47.552Z,3836.25
2018-09-24T13:00:48.278Z,3870.00
2018-09-24T13:01:47.548Z,3864.38
2018-09-24T13:02:47.576Z,3836.25
2018-09-24T13:03:47.562Z,3780.00
2018-09-24T13:04:47.630Z,3813.75
2018-09-24T13:05:47.471Z,3706.88
2018-09-24T13:06:47.509Z,3678.75
2018-09-24T13:07:47.460Z,3735.00
2018-09-24T13:08:47.525Z,3740.62
2018-09-24T13:09:47.467Z,3718.12
2018-09-24T13:10:47.426Z,3656.25
2018-09-24T13:11:47.427Z,3791.25
2018-09-24T13:12:47.404Z,3684.38
2018-09-24T13:13:48.232Z,3802.50
2018-09-24T13:14:47.412Z,3751.88
2018-09-24T13:15:47.536Z,3723.75
2018-09-24T13:16:47.458Z,3690.00
2018-09-24T13:17:47.349Z,3684.38
2018-09-24T13:18:47.372Z,3706.88
2018-09-24T13:19:47.394Z,3667.50
2018-09-24T13:21:58.794Z,3588.75
2018-09-24T13:23:04.950Z,3549.38
2018-09-24T13:23:58.135Z,3543.75
2018-09-24T13:24:58.137Z,3667.50
2018-09-24T13:25:58.412Z,3723.75
2018-09-24T13:28:10.044Z,3543.75
2018-09-24T13:29:10.592Z,3470.62
2018-09-24T13:30:11.585Z,3538.12
2018-09-24T13:31:30.177Z,3397.50
2018-09-24T13:35:48.837Z,3375.00
2018-09-24T13:36:47.861Z,3414.38
2018-09-24T13:37:47.731Z,3363.75
2018-09-24T13:38:47.702Z,3330.00
2018-09-24T13:39:47.741Z,3352.50
2018-09-24T13:40:57.320Z,3363.75
2018-09-24T13:41:47.836Z,3318.75
2018-09-24T13:42:54.608Z,3358.12
2018-09-24T13:43:47.862Z,3301.88
2018-09-24T13:44:47.964Z,3262.50
2018-09-24T13:45:47.792Z,3358.12
2018-09-24T13:46:47.663Z,3211.88
2018-09-24T13:47:47.660Z,3228.75
2018-09-24T13:48:47.579Z,3251.25
2018-09-24T13:49:47.574Z,3121.88
2018-09-24T13:50:47.627Z,3150.00
2018-09-24T13:51:47.548Z,3223.12
2018-09-24T13:52:47.589Z,3195.00
2018-09-24T13:53:47.518Z,3043.12
2018-09-24T13:54:47.649Z,3037.50
2018-09-24T13:55:47.515Z,3166.88
2018-09-24T13:56:47.507Z,3133.12
2018-09-24T13:57:47.746Z,2373.75
2018-09-24T13:58:47.466Z,3161.25
2018-09-24T13:59:47.462Z,3031.88
2018-09-24T14:03:16.193Z,1991.25
2018-09-24T14:12:00.271Z,601.88
2018-09-24T14:15:29.153Z,613.12
2018-09-24T14:16:27.166Z,551.25
2018-09-24T14:17:41.430Z,545.62
2018-09-24T14:19:45.037Z,585.00
2018-09-24T14:20:44.628Z,2615.62
2018-09-24T14:21:44.740Z,2356.88
2018-09-24T14:22:46.230Z,2098.12
2018-09-24T14:23:44.957Z,1575.00
2018-09-24T14:24:45.276Z,956.25
2018-09-24T14:25:44.779Z,787.50
2018-09-24T14:28:45.599Z,478.12
2018-09-24T14:37:11.719Z,804.38
2018-09-24T14:40:56.699Z,585.00
2018-09-24T14:41:57.425Z,545.62
2018-09-24T14:49:45.865Z,506.25
2018-09-24T14:52:07.294Z,511.88
2018-09-24T14:53:05.197Z,523.12
2018-09-24T14:54:05.374Z,511.88
2018-09-24T14:55:05.193Z,556.88
2018-09-24T14:56:05.137Z,601.88
2018-09-24T14:57:05.143Z,624.38
2018-09-24T14:58:05.571Z,579.38
2018-09-24T14:59:05.119Z,427.50
2018-09-24T15:00:05.096Z,281.25
2018-09-24T15:01:05.097Z,196.88
2018-09-24T15:02:05.173Z,174.38
2018-09-24T15:03:05.173Z,213.75
2018-09-24T15:04:05.057Z,270.00
2018-09-24T15:05:05.048Z,331.88
2018-09-24T15:06:05.045Z,427.50
2018-09-24T15:07:05.045Z,573.75
2018-09-24T15:08:05.099Z,720.00
2018-09-24T15:09:05.085Z,776.25
2018-09-24T15:12:40.590Z,466.88
2018-09-24T15:13:40.162Z,388.12
2018-09-24T15:14:40.212Z,393.75
2018-09-24T15:33:53.951Z,303.75
2018-09-24T15:34:56.222Z,303.75
2018-09-24T15:39:04.537Z,303.75
2018-09-24T15:42:07.812Z,298.12
2018-09-24T15:43:08.027Z,292.50
2018-09-24T15:45:26.828Z,270.00
2018-09-24T15:46:28.125Z,298.12
2018-09-24T15:47:26.912Z,264.38
2018-09-24T15:49:52.788Z,270.00
2018-09-24T15:50:51.618Z,286.88
2018-09-24T15:54:58.660Z,247.50
2018-09-24T15:56:08.718Z,241.88
2018-09-24T16:04:11.578Z,146.25
2018-09-24T16:06:22.926Z,219.38
2018-09-24T16:07:23.156Z,275.62
2018-09-24T16:08:22.973Z,326.25
2018-09-24T16:09:23.551Z,354.38
2018-09-24T16:10:22.887Z,360.00
2018-09-24T16:11:22.840Z,371.25
2018-09-24T16:12:22.876Z,371.25
2018-09-24T16:13:22.809Z,326.25
2018-09-24T16:14:22.807Z,281.25
2018-09-24T16:15:22.901Z,258.75
2018-09-24T16:16:22.826Z,241.88
2018-09-24T16:17:22.777Z,241.88
2018-09-24T16:18:22.884Z,236.25
2018-09-24T16:19:22.922Z,230.62
2018-09-24T16:20:22.840Z,230.62
2018-09-24T16:21:22.974Z,230.62
2018-09-24T16:22:25.571Z,230.62
2018-09-24T16:23:22.733Z,225.00
2018-09-24T16:24:22.766Z,225.00
2018-09-24T16:25:22.728Z,230.62
2018-09-24T16:26:22.760Z,230.62
2018-09-24T16:27:22.690Z,236.25
2018-09-24T16:28:22.694Z,253.12
2018-09-24T16:29:24.437Z,241.88
2018-09-24T16:30:22.787Z,247.50
2018-09-24T16:31:22.665Z,219.38
2018-09-24T16:32:23.030Z,208.12
2018-09-24T16:33:22.609Z,191.25
2018-09-24T16:34:22.608Z,185.62
2018-09-24T16:35:22.581Z,180.00
2018-09-24T16:36:22.798Z,174.38
2018-09-24T16:37:22.589Z,168.75
2018-09-24T16:38:22.549Z,163.12
2018-09-24T16:39:22.563Z,157.50
2018-09-24T16:40:22.519Z,157.50
2018-09-24T16:41:22.610Z,146.25
2018-09-24T16:42:22.569Z,140.62
2018-09-24T16:43:22.631Z,123.75
2018-09-24T16:44:22.479Z,123.75
2018-09-24T16:45:22.667Z,118.12
2018-09-24T16:46:22.509Z,112.50
2018-09-24T16:47:22.555Z,112.50
2018-09-24T16:48:22.452Z,118.12
2018-09-24T16:49:22.440Z,112.50
2018-09-24T16:50:22.446Z,118.12
2018-09-24T16:55:26.899Z,101.25
2018-09-24T16:56:26.378Z,101.25
2018-09-24T16:57:26.394Z,95.62
2018-09-24T17:03:37.047Z,73.12
2018-09-24T17:04:37.106Z,73.12
2018-09-24T17:15:22.930Z,39.38
2018-09-24T17:16:21.948Z,33.75
2018-09-24T17:17:20.560Z,33.75
2018-09-24T17:18:20.414Z,28.12
2018-09-24T17:21:29.549Z,22.50
2018-09-24T17:24:34.898Z,16.88
2018-09-24T17:39:51.033Z,0.00
2018-09-24T18:07:11.806Z,0.00
2018-09-24T18:08:12.340Z,0.00
2018-09-24T18:09:16.690Z,0.00
2018-09-24T18:17:41.073Z,0.00
2018-09-24T18:18:42.110Z,0.00
2018-09-24T18:19:41.187Z,0.00
2018-09-24T18:20:45.242Z,0.00
2018-09-24T18:24:16.361Z,0.00
2018-09-24T18:25:16.162Z,0.00
2018-09-24T18:26:15.560Z,0.00
2018-09-24T18:40:34.433Z,0.00
2018-09-24T19:10:34.183Z,0.00
2018-09-24T19:11:33.904Z,0.00
2018-09-24T19:12:42.549Z,0.00
2018-09-24T19:13:33.674Z,0.00
2018-09-24T19:14:33.636Z,0.00
2018-09-24T19:15:39.605Z,0.00
2018-09-24T19:16:34.491Z,0.00
2018-09-24T19:17:33.543Z,0.00
2018-09-24T19:18:33.663Z,0.00
2018-09-24T20:04:33.625Z,0.00
2018-09-24T20:05:33.267Z,0.00
2018-09-24T20:06:33.601Z,0.00
2018-09-24T20:07:33.179Z,0.00
2018-09-24T20:08:33.013Z,0.00
2018-09-24T20:09:33.083Z,0.00
2018-09-24T20:10:33.002Z,0.00
2018-09-24T20:12:51.275Z,0.00
2018-09-24T20:13:51.316Z,0.00
2018-09-24T20:14:51.239Z,0.00
2018-09-24T20:15:51.230Z,0.00
2018-09-24T20:16:51.132Z,0.00
